Latest Coastal Weather Observations for Larapuna (Eddystone Point)

IDT60701

Issued at 2:42 am EST Tuesday 6 June 2023 (issued every 10 minutes, with the page automatically refreshed every 10 minutes)

About coastal observations | Map of coastal stations | Coastal observations for TAS | Marine services | Other Formats
Station Details ID: 092045 Name: LARAPUNA (EDDYSTONE POINT) Lat: -40.99 Lon: 148.35 Height: 19.7 m
Data from the previous 72 hours. | See also: Recent months at Larapuna (Eddystone Point)
Date/Time
EST
Wind Sea
Height
m
Swell Vis
km
Cloud Weather Temp
°C
Press
MSL
hPa
Rain since
9am
mm
Dir  Spd
kts
Gust
kts
Height
m
Period
s
Dir
06/02:30am NNE 13 16 - - - - - - - 15.2 1026.7 0.6
06/02:00am NNE 16 19 - - - - - - - 15.1 1026.7 0.6
06/01:30am NNE 17 20 - - - - - - - 15.5 1026.7 0.6
06/01:00am NNE 17 20 - - - - - - - 15.2 1026.9 0.6
06/12:30am NNE 16 19 - - - - - - - 15.3 1027.1 0.6
06/12:00am NE 16 19 - - - - - - - 15.1 1027.2 0.6
 
Date/Time
EST
Wind Sea
Height
m
Swell Vis
km
Cloud Weather Temp
°C
Press
MSL
hPa
Rain since
9am
mm
Dir  Spd
kts
Gust
kts
Height
m
Period
s
Dir
05/11:30pm NE 18 21 - - - - - - - 14.9 1027.5 0.6
05/11:00pm NE 15 17 - - - - - - - 14.6 1027.7 0.6
05/10:30pm NE 13 16 - - - - - - - 14.1 1028.0 0.6
05/10:00pm NE 14 17 - - - - - - - 14.4 1028.2 0.6
05/09:30pm NE 9 11 - - - - - - - 13.6 1028.5 0.6
05/09:00pm ENE 9 11 - - - - - - - 13.5 1028.6 0.6
05/08:30pm NE 15 19 - - - - - - - 13.7 1028.9 0.6
05/08:00pm ENE 16 20 - - - - - - - 13.7 1028.8 0.6
05/07:30pm NE 11 14 - - - - - - - 13.2 1029.0 0.0
05/07:00pm NE 19 25 - - - - - - - 13.7 1029.1 0.0
05/06:30pm NE 15 17 - - - - - - - 14.5 1029.1 0.0
05/06:00pm NE 15 21 - - - - - - - 14.2 1029.0 0.0
05/05:30pm ENE 17 21 - - - - - - - 14.7 1028.8 0.0
05/05:00pm NE 18 22 - - - - - - - 14.7 1028.7 0.0
05/04:30pm NE 11 14 - - - - - - - 14.8 1028.7 0.0
05/04:00pm NE 15 17 - - - - - - - 14.9 1029.0 0.0
05/03:30pm NNE 15 19 - - - - - - - 14.8 1029.0 0.0
05/03:00pm NE 14 17 - - - - - - - 14.9 1029.0 0.0
05/02:30pm NE 15 17 - - - - - - - 14.8 1029.2 0.0
05/02:00pm NE 13 17 - - - - - - - 14.5 1029.6 0.0
05/01:30pm ENE 13 15 - - - - - - - 14.6 1030.0 0.0
05/01:00pm NE 12 16 - - - - - - - 15.1 1030.5 0.0
05/12:30pm ENE 13 16 - - - - - - - 14.9 1030.8 0.0
05/12:00pm ENE 12 15 - - - - - - - 14.8 1031.3 0.0
05/11:30am NE 14 16 - - - - - - - 14.5 1031.7 0.0
05/11:00am NE 12 14 - - - - - - - 15.1 1032.3 0.0
05/10:30am ENE 7 11 - - - - - - - 14.5 1032.7 0.0
05/10:00am NE 9 11 - - - - - - - 14.8 1032.9 0.0
05/09:30am NE 18 21 - - - - - - - 13.8 1032.9 0.0
05/09:00am NE 14 16 - - - - - - - 14.5 1033.0 0.0
05/08:30am ENE 10 15 - - - - - - - 13.9 1033.2 0.0
05/08:00am NNE 15 17 - - - - - - - 14.1 1033.2 0.0
05/07:30am NNE 13 18 - - - - - - - 13.8 1033.3 0.0
05/07:00am NE 14 16 - - - - - - - 13.9 1033.1 0.0
05/06:30am NE 10 12 - - - - - - - 13.9 1033.2 0.0
05/06:00am NNE 12 16 - - - - - - - 13.9 1033.1 0.0
05/05:30am E 6 8 - - - - - - - 13.3 1033.1 0.0
05/05:00am ENE 7 9 - - - - - - - 13.3 1033.3 0.0
05/04:30am NE 9 16 - - - - - - - 13.4 1033.4 0.0
05/04:00am NE 11 15 - - - - - - - 13.5 1033.3 0.0
05/03:30am NE 12 16 - - - - - - - 13.5 1033.2 0.0
05/03:00am ENE 9 14 - - - - - - - 13.2 1033.3 0.0
05/02:30am NE 11 15 - - - - - - - 13.1 1033.6 0.0
05/02:00am NE 10 15 - - - - - - - 13.0 1033.7 0.0
05/01:30am ENE 7 11 - - - - - - - 11.7 1033.7 0.0
05/01:00am SW 6 8 - - - - - - - 11.2 1033.9 0.0
05/12:30am SW 7 9 - - - - - - - 10.6 1034.5 0.0
05/12:00am SW 7 8 - - - - - - - 10.6 1035.0 0.0
 
Date/Time
EST
Wind Sea
Height
m
Swell Vis
km
Cloud Weather Temp
°C
Press
MSL
hPa
Rain since
9am
mm
Dir  Spd
kts
Gust
kts
Height
m
Period
s
Dir
04/11:30pm SW 7 9 - - - - - - - 10.5 1035.3 0.0
04/11:00pm SW 6 9 - - - - - - - 10.2 1035.5 0.0
04/10:30pm SW 7 9 - - - - - - - 9.8 1035.6 0.0
04/10:00pm SW 5 8 - - - - - - - 9.7 1035.6 0.0
04/09:30pm E 7 9 - - - - - - - 10.6 1035.7 0.0
04/09:00pm SE 3 6 - - - - - - - 9.9 1035.7 0.0
04/08:30pm ENE 7 9 - - - - - - - 11.1 1035.4 0.0
04/08:00pm E 6 9 - - - - - - - 11.4 1035.1 0.0
04/07:30pm E 6 8 - - - - - - - 11.2 1035.2 0.0
04/07:00pm E 7 9 - - - - - - - 11.2 1034.9 0.0
04/06:30pm E 6 8 - - - - - - - 11.1 1034.7 0.0
04/06:00pm E 7 8 - - - - - - - 11.0 1034.7 0.0
04/05:30pm E 6 8 - - - - - - - 11.0 1034.6 0.0
04/05:00pm ESE 5 7 - - - - - - - 10.9 1034.7 0.0
04/04:30pm ESE 5 7 - - - - - - - 11.2 1034.8 0.0
04/04:00pm SE 5 7 - - - - - - - 12.3 1035.0 0.0
04/03:30pm ESE 4 6 - - - - - - - 13.1 1035.1 0.0
04/03:00pm ESE 5 7 - - - - - - - 13.8 1035.3 0.0
04/02:30pm ESE 6 8 - - - - - - - 13.8 1035.3 0.0
04/02:00pm SE 6 8 - - - - - - - 14.0 1035.3 0.0
04/01:30pm SE 8 10 - - - - - - - 13.5 1035.6 0.0
04/01:00pm SE 7 9 - - - - - - - 13.4 1035.7 0.0
04/12:30pm SSE 7 8 - - - - - - - 13.4 1035.8 0.0
04/12:00pm SSE 7 9 - - - - - - - 13.2 1035.9 0.0
04/11:30am SSE 7 9 - - - - - - - 13.1 1036.2 0.0
04/11:00am SSE 8 9 - - - - - - - 12.7 1036.5 0.0
04/10:30am SSE 7 9 - - - - - - - 12.6 1036.7 0.0
04/10:00am S 9 11 - - - - - - - 12.1 1036.7 0.0
04/09:30am S 8 11 - - - - - - - 11.4 1036.5 0.0
04/09:00am SSW 9 10 - - - - - - - 10.6 1036.5 0.0
04/08:30am SSW 9 11 - - - - - - - 9.3 1036.5 0.0
04/08:00am SSW 9 10 - - - - - - - 8.4 1036.1 0.0
04/07:30am SW 9 11 - - - - - - - 7.9 1036.0 0.0
04/07:00am SW 10 11 - - - - - - - 7.7 1035.8 0.0
04/06:30am SW 10 11 - - - - - - - 7.9 1035.7 0.0
04/06:00am S 12 14 - - - - - - - 9.2 1035.4 0.0
04/05:30am S 11 14 - - - - - - - 9.2 1035.0 0.0
04/05:00am S 12 15 - - - - - - - 9.3 1034.7 0.0
04/04:30am S 13 15 - - - - - - - 9.3 1034.4 0.0
04/04:00am S 13 16 - - - - - - - 9.4 1034.2 0.0
04/03:30am S 13 15 - - - - - - - 9.1 1034.0 0.0
04/03:00am SSW 12 14 - - - - - - - 8.8 1033.6 0.0
04/02:30am SSW 12 15 - - - - - - - 9.1 1033.3 0.0
04/02:00am S 17 20 - - - - - - - 9.6 1033.0 0.0
04/01:30am S 16 19 - - - - - - - 9.7 1032.9 0.0
04/01:00am S 16 19 - - - - - - - 9.8 1032.8 0.0
04/12:30am S 16 19 - - - - - - - 10.0 1032.9 0.0
04/12:00am S 16 19 - - - - - - - 10.1 1032.8 0.0
 
Date/Time
EST
Wind Sea
Height
m
Swell Vis
km
Cloud Weather Temp
°C
Press
MSL
hPa
Rain since
9am
mm
Dir  Spd
kts
Gust
kts
Height
m
Period
s
Dir
03/11:30pm S 16 20 - - - - - - - 10.3 1032.7 0.0
03/11:00pm S 17 21 - - - - - - - 10.6 1032.3 0.0
03/10:30pm S 19 22 - - - - - - - 10.9 1032.0 0.0
03/10:00pm S 19 22 - - - - - - - 11.3 1031.8 0.0
03/09:30pm S 18 22 - - - - - - - 11.3 1031.7 0.0
03/09:00pm SSE 19 23 - - - - - - - 11.4 1031.1 0.0
03/08:30pm S 17 20 - - - - - - - 11.5 1030.7 0.0
03/08:00pm SSE 15 19 - - - - - - - 11.6 1030.2 0.0
03/07:30pm S 17 23 - - - - - - - 11.8 1029.8 0.0
03/07:00pm SSE 16 19 - - - - - - - 11.9 1029.5 0.0
03/06:30pm SSE 16 19 - - - - - - - 12.0 1028.9 0.0
03/06:00pm SSE 15 18 - - - - - - - 11.8 1028.3 0.0
03/05:30pm SSE 17 20 - - - - - - - 12.0 1027.7 0.0
03/05:00pm SSE 17 20 - - - - - - - 12.3 1027.2 0.0
03/04:35pm SE 7 19 - - - - - - - 13.1 1026.6 0.0
03/04:30pm ESE 4 5 - - - - - - - 12.9 1026.4 0.0
03/04:00pm SE 3 5 - - - - - - - 14.2 1026.0 0.0
03/03:30pm SE 4 4 - - - - - - - 14.8 1025.6 0.0
03/03:00pm S 2 3 - - - - - - - 15.2 1025.3 0.0
03/02:30pm SSE 3 4 - - - - - - - 14.9 1024.9 0.0
03/02:00pm SSE 4 5 - - - - - - - 15.2 1024.4 0.0
03/01:30pm SSE 5 6 - - - - - - - 15.6 1024.2 0.0
03/01:00pm SSE 5 6 - - - - - - - 15.0 1023.8 0.0
03/12:30pm SW 5 6 - - - - - - - 15.0 1023.8 0.0
03/12:00pm WSW 6 8 - - - - - - - 15.1 1023.7 0.0
03/11:30am W 9 15 - - - - - - - 12.7 1023.6 0.0
03/11:00am WSW 9 13 - - - - - - - 13.1 1024.0 0.0
03/10:30am W 13 17 - - - - - - - 11.4 1023.7 0.0
03/10:00am W 14 21 - - - - - - - 12.2 1023.6 0.0
03/09:30am W 9 14 - - - - - - - 11.0 1023.5 0.0
03/09:00am WNW 9 13 - - - - - - - 10.6 1023.5 0.0
03/08:30am NW 3 7 - - - - - - - 9.9 1023.1 0.0
03/08:00am NW 4 6 - - - - - - - 9.5 1022.8 0.0
03/07:30am W 4 6 - - - - - - - 8.9 1022.5 0.0
03/07:00am W 3 5 - - - - - - - 8.6 1022.3 0.0
03/06:30am W 4 7 - - - - - - - 8.5 1022.1 0.0
03/06:00am WNW 11 13 - - - - - - - 8.5 1021.5 0.0
03/05:30am WNW 13 17 - - - - - - - 9.4 1021.5 0.0
03/05:00am WNW 15 21 - - - - - - - 9.1 1021.4 0.0
03/04:30am W 9 10 - - - - - - - 8.0 1021.8 0.0
03/04:00am WSW 5 8 - - - - - - - 8.3 1021.8 0.0
03/03:30am WNW 4 6 - - - - - - - 8.6 1021.9 0.0
03/03:00am WNW 8 11 - - - - - - - 9.1 1021.9 0.0

Other formats

Comma delimited format used in spreadsheet applications
http://www.bom.gov.au/fwo/IDT60701/IDT60701.94983.axf

JavaScript Object Notation format (JSON) in row-major order
http://www.bom.gov.au/fwo/IDT60701/IDT60701.94983.json

Data quality

Most of these data are generated automatically and are frequently updated. Quality checks on data are not normally performed. It is possible for incorrect values to appear. Refer to information at About Latest Weather Observations and please check the disclaimer before using these data.